createdAt,value
2023-04-18T00:00:05.524Z,101219.97
2023-04-18T00:02:17.199Z,101221.72
2023-04-18T00:04:20.513Z,101226.16
2023-04-18T00:06:24.131Z,101219.97
2023-04-18T00:08:28.304Z,101217.19
2023-04-18T00:10:31.111Z,101225.72
2023-04-18T00:12:36.342Z,101218.00
2023-04-18T00:14:40.998Z,101216.34
2023-04-18T00:16:43.819Z,101210.88
2023-04-18T00:18:48.123Z,101216.22
2023-04-18T00:20:50.875Z,101210.81
2023-04-18T00:22:54.946Z,101217.63
2023-04-18T00:24:57.741Z,101210.66
2023-04-18T00:27:01.569Z,101216.03
2023-04-18T00:29:06.104Z,101210.97
2023-04-18T00:31:11.674Z,101212.56
2023-04-18T00:33:14.521Z,101212.63
2023-04-18T00:35:17.342Z,101210.03
2023-04-18T00:37:22.220Z,101207.19
2023-04-18T00:39:25.568Z,101211.56
2023-04-18T00:41:31.261Z,101209.06
2023-04-18T00:43:35.069Z,101214.84
2023-04-18T00:45:39.235Z,101211.25
2023-04-18T00:47:42.069Z,101208.63
2023-04-18T00:49:45.429Z,101208.69
2023-04-18T00:51:48.915Z,101194.72
2023-04-18T00:53:51.891Z,101201.63
2023-04-18T00:55:54.815Z,101202.53
2023-04-18T00:57:57.631Z,101196.22
2023-04-18T01:00:01.853Z,101199.59
2023-04-18T01:02:06.356Z,101194.44
2023-04-18T01:04:10.404Z,101202.22
2023-04-18T01:06:13.716Z,101198.81
2023-04-18T01:08:17.152Z,101201.09
2023-04-18T01:10:20.901Z,101190.19
2023-04-18T01:12:25.794Z,101193.47
2023-04-18T01:14:30.329Z,101184.41
2023-04-18T01:16:33.613Z,101189.53
2023-04-18T01:18:40.162Z,101191.50
2023-04-18T01:20:46.751Z,101191.34
2023-04-18T01:22:49.609Z,101186.97
2023-04-18T01:24:53.774Z,101181.84
2023-04-18T01:26:57.162Z,101183.56
2023-04-18T01:28:59.939Z,101185.13
2023-04-18T01:31:02.755Z,101182.50
2023-04-18T01:33:06.492Z,101180.94
2023-04-18T01:35:10.220Z,101179.69
2023-04-18T01:37:13.057Z,101175.47
2023-04-18T01:39:18.237Z,101168.81
2023-04-18T01:41:23.108Z,101177.94
2023-04-18T01:43:25.871Z,101173.50
2023-04-18T01:45:28.755Z,101175.88
2023-04-18T01:47:31.653Z,101169.75
2023-04-18T01:49:36.830Z,101170.31
2023-04-18T01:51:39.898Z,101160.94
2023-04-18T01:53:42.913Z,101166.09
2023-04-18T01:55:45.695Z,101174.13
2023-04-18T01:57:50.758Z,101170.47
2023-04-18T01:59:53.554Z,101163.75
2023-04-18T02:01:56.466Z,101165.56
2023-04-18T02:04:00.436Z,101175.59
2023-04-18T02:06:05.017Z,101173.22
2023-04-18T02:08:07.831Z,101175.47
2023-04-18T02:10:11.270Z,101181.41
2023-04-18T02:12:14.085Z,101169.78
2023-04-18T02:14:18.328Z,101175.03
2023-04-18T02:16:21.397Z,101166.69
2023-04-18T02:18:25.722Z,101167.44
2023-04-18T02:20:31.718Z,101177.66
2023-04-18T02:22:38.095Z,101174.34
2023-04-18T02:24:40.941Z,101169.44
2023-04-18T02:26:44.439Z,101177.16
2023-04-18T02:28:47.267Z,101177.09
2023-04-18T02:30:51.433Z,101175.19
2023-04-18T02:32:54.802Z,101175.13
2023-04-18T02:34:59.918Z,101169.94
2023-04-18T02:37:02.735Z,101173.28
2023-04-18T02:39:05.583Z,101168.25
2023-04-18T02:41:08.348Z,101176.00
2023-04-18T02:43:11.195Z,101173.44
2023-04-18T02:45:14.076Z,101176.97
2023-04-18T02:47:18.159Z,101176.75
2023-04-18T02:49:22.685Z,101175.09
2023-04-18T02:51:26.780Z,101173.44
2023-04-18T02:53:29.924Z,101171.59
2023-04-18T02:55:33.023Z,101175.00
2023-04-18T02:57:37.122Z,101170.59
2023-04-18T03:00:00.208Z,101176.69
2023-04-18T03:02:23.300Z,101167.22
2023-04-18T03:04:31.805Z,101168.81
2023-04-18T03:06:37.308Z,101169.66
2023-04-18T03:08:41.011Z,101174.97
2023-04-18T03:10:44.833Z,101170.09
2023-04-18T03:12:47.916Z,101175.75
2023-04-18T03:14:53.070Z,101174.59
2023-04-18T03:16:57.125Z,101182.38
2023-04-18T03:19:06.289Z,101169.56
2023-04-18T03:21:09.687Z,101171.25
2023-04-18T03:23:12.985Z,101177.97
2023-04-18T03:25:16.088Z,101179.94
2023-04-18T03:27:28.582Z,101169.56
2023-04-18T03:29:31.511Z,101176.34
2023-04-18T03:31:34.758Z,101172.06
2023-04-18T03:33:39.130Z,101176.22
2023-04-18T03:35:47.029Z,101172.00
2023-04-18T03:37:49.912Z,101175.16
2023-04-18T03:39:59.758Z,101172.59
2023-04-18T03:42:04.539Z,101175.94
2023-04-18T03:44:07.405Z,101174.28
2023-04-18T03:46:12.605Z,101167.28
2023-04-18T03:48:15.567Z,101171.97
2023-04-18T03:50:20.381Z,101174.00
2023-04-18T03:52:27.521Z,101170.53
2023-04-18T03:54:32.049Z,101172.50
2023-04-18T03:56:35.036Z,101177.25
2023-04-18T03:58:38.100Z,101173.84
2023-04-18T04:00:41.092Z,101164.94
2023-04-18T04:02:46.757Z,101165.13
2023-04-18T04:04:55.784Z,101173.19
2023-04-18T04:06:59.367Z,101166.53
2023-04-18T04:09:03.958Z,101170.66
2023-04-18T04:11:06.893Z,101169.94
2023-04-18T04:13:09.691Z,101169.16
2023-04-18T04:15:15.393Z,101168.56
2023-04-18T04:17:25.394Z,101169.25
2023-04-18T04:19:28.836Z,101172.69
2023-04-18T04:21:42.574Z,101183.97
2023-04-18T04:23:48.810Z,101176.91
2023-04-18T04:26:04.578Z,101184.41
2023-04-18T04:28:16.820Z,101183.44
2023-04-18T04:30:28.565Z,101183.41
2023-04-18T04:32:32.967Z,101184.00
2023-04-18T04:34:36.760Z,101181.97
2023-04-18T04:36:43.104Z,101187.84
2023-04-18T04:38:48.355Z,101189.03
2023-04-18T04:40:52.935Z,101185.34
2023-04-18T04:42:58.504Z,101188.53
2023-04-18T04:45:09.257Z,101187.47
2023-04-18T04:47:12.177Z,101187.53
2023-04-18T04:49:15.734Z,101194.94
2023-04-18T04:51:18.525Z,101195.00
2023-04-18T04:53:21.412Z,101201.25
2023-04-18T04:55:24.480Z,101200.44
2023-04-18T04:57:27.309Z,101198.47
2023-04-18T04:59:31.442Z,101202.22
2023-04-18T05:01:34.370Z,101205.72
2023-04-18T05:03:37.530Z,101208.22
2023-04-18T05:05:40.765Z,101209.28
2023-04-18T05:07:43.552Z,101211.19
2023-04-18T05:09:46.271Z,101217.16
2023-04-18T05:11:49.476Z,101213.78
2023-04-18T05:13:52.268Z,101225.22
2023-04-18T05:15:56.688Z,101218.25
2023-04-18T05:17:59.738Z,101232.09
2023-04-18T05:20:02.617Z,101228.66
2023-04-18T05:22:05.428Z,101233.78
2023-04-18T05:24:08.439Z,101229.16
2023-04-18T05:26:11.198Z,101235.28
2023-04-18T05:28:14.050Z,101237.13
2023-04-18T05:30:17.029Z,101240.00
2023-04-18T05:32:21.231Z,101241.25
2023-04-18T05:34:24.117Z,101246.16
2023-04-18T05:36:26.882Z,101244.00
2023-04-18T05:38:29.621Z,101248.47
2023-04-18T05:40:32.502Z,101249.75
2023-04-18T05:42:35.508Z,101250.63
2023-04-18T05:44:38.424Z,101249.66
2023-04-18T05:46:41.317Z,101250.66
2023-04-18T05:48:45.503Z,101251.25
2023-04-18T05:50:48.396Z,101245.13
2023-04-18T05:52:51.291Z,101253.06
2023-04-18T05:54:54.262Z,101253.84
2023-04-18T05:56:57.172Z,101249.66
2023-04-18T05:58:59.872Z,101250.13
2023-04-18T06:01:02.811Z,101246.53
2023-04-18T06:03:07.872Z,101249.13
2023-04-18T06:05:14.277Z,101257.81
2023-04-18T06:07:17.712Z,101253.88
2023-04-18T06:09:20.745Z,101251.97
2023-04-18T06:11:23.660Z,101263.03
2023-04-18T06:13:26.476Z,101265.09
2023-04-18T06:15:29.725Z,101271.06
2023-04-18T06:17:32.684Z,101271.19
2023-04-18T06:19:35.456Z,101264.88
2023-04-18T06:21:41.905Z,101274.25
2023-04-18T06:23:44.712Z,101268.69
2023-04-18T06:25:47.562Z,101272.34
2023-04-18T06:27:50.373Z,101269.97
2023-04-18T06:29:53.240Z,101266.28
2023-04-18T06:31:57.388Z,101268.06
2023-04-18T06:34:00.219Z,101271.75
2023-04-18T06:36:03.028Z,101271.06
2023-04-18T06:38:07.162Z,101282.81
2023-04-18T06:40:11.435Z,101274.56
2023-04-18T06:42:14.249Z,101278.56
2023-04-18T06:44:20.946Z,101280.16
2023-04-18T06:46:24.077Z,101278.34
2023-04-18T06:48:26.921Z,101273.00
2023-04-18T06:50:30.541Z,101270.91
2023-04-18T06:52:33.382Z,101278.09
2023-04-18T06:54:37.488Z,101279.47
2023-04-18T06:56:40.436Z,101277.25
2023-04-18T06:58:43.166Z,101274.56
2023-04-18T07:00:48.789Z,101279.84
2023-04-18T07:02:51.629Z,101276.41
2023-04-18T07:04:54.470Z,101278.91
2023-04-18T07:06:57.316Z,101277.88
2023-04-18T07:09:01.497Z,101277.94
2023-04-18T07:11:06.552Z,101264.06
2023-04-18T07:13:09.405Z,101271.72
2023-04-18T07:15:12.811Z,101271.94
2023-04-18T07:17:15.636Z,101273.00
2023-04-18T07:19:18.666Z,101271.22
2023-04-18T07:21:21.427Z,101279.00
2023-04-18T07:23:24.223Z,101281.34
2023-04-18T07:25:27.116Z,101279.84
2023-04-18T07:27:31.290Z,101274.81
2023-04-18T07:29:34.263Z,101272.91
2023-04-18T07:31:37.096Z,101273.63
2023-04-18T07:33:40.012Z,101278.91
2023-04-18T07:35:45.835Z,101280.00
2023-04-18T07:37:48.743Z,101273.28
2023-04-18T07:39:52.114Z,101272.50
2023-04-18T07:41:54.908Z,101276.75
2023-04-18T07:43:59.176Z,101271.06
2023-04-18T07:46:02.286Z,101273.16
2023-04-18T07:48:05.750Z,101279.06
2023-04-18T07:50:10.231Z,101274.56
2023-04-18T07:52:13.073Z,101274.72
2023-04-18T07:54:15.910Z,101271.00
2023-04-18T07:56:18.670Z,101282.66
2023-04-18T07:58:21.563Z,101275.44
2023-04-18T08:00:26.301Z,101281.59
2023-04-18T08:02:29.070Z,101281.13
2023-04-18T08:04:32.097Z,101288.72
2023-04-18T08:06:35.592Z,101282.13
2023-04-18T08:08:38.366Z,101286.31
2023-04-18T08:10:41.199Z,101289.75
2023-04-18T08:12:44.074Z,101286.03
2023-04-18T08:14:46.826Z,101286.81
2023-04-18T08:16:50.932Z,101289.75
2023-04-18T08:18:53.788Z,101291.59
2023-04-18T08:20:56.643Z,101286.50
2023-04-18T08:23:05.682Z,101291.78
2023-04-18T08:25:10.283Z,101284.50
2023-04-18T08:27:13.077Z,101284.31
2023-04-18T08:29:15.954Z,101277.59
2023-04-18T08:31:19.047Z,101282.47
2023-04-18T08:33:24.279Z,101284.13
2023-04-18T08:35:27.243Z,101290.47
2023-04-18T08:37:30.205Z,101296.38
2023-04-18T08:39:32.995Z,101295.66
2023-04-18T08:41:38.014Z,101294.81
2023-04-18T08:43:40.855Z,101297.19
2023-04-18T08:45:44.360Z,101298.63
2023-04-18T08:47:47.391Z,101290.75
2023-04-18T08:49:52.133Z,101288.13
2023-04-18T08:51:57.373Z,101289.00
2023-04-18T08:54:04.209Z,101296.16
2023-04-18T08:56:10.489Z,101295.31
2023-04-18T08:58:13.831Z,101296.47
2023-04-18T09:00:18.646Z,101294.13
2023-04-18T09:02:23.265Z,101290.75
2023-04-18T09:04:35.974Z,101298.25
2023-04-18T09:06:52.802Z,101288.69
2023-04-18T09:08:59.533Z,101293.72
2023-04-18T09:11:28.891Z,101286.78
2023-04-18T09:13:41.038Z,101279.13
2023-04-18T09:15:56.091Z,101281.72
2023-04-18T09:18:02.176Z,101290.16
2023-04-18T09:20:09.782Z,101285.53
2023-04-18T09:22:14.221Z,101287.25
2023-04-18T09:24:24.003Z,101283.84
2023-04-18T09:26:34.589Z,101278.38
2023-04-18T09:28:37.536Z,101277.06
2023-04-18T09:30:42.230Z,101281.06
2023-04-18T09:32:45.454Z,101282.56
2023-04-18T09:34:48.268Z,101288.06
2023-04-18T09:37:06.692Z,101280.56
2023-04-18T09:39:11.042Z,101283.97
2023-04-18T09:41:19.037Z,101281.50
2023-04-18T09:43:23.558Z,101277.16
2023-04-18T09:45:27.405Z,101291.38
2023-04-18T09:47:30.707Z,101284.09
2023-04-18T09:49:33.683Z,101282.81
2023-04-18T09:51:36.705Z,101284.19
2023-04-18T09:53:40.945Z,101277.78
2023-04-18T09:55:46.070Z,101271.81
2023-04-18T09:57:49.703Z,101277.56
2023-04-18T09:59:59.911Z,101279.47
2023-04-18T10:02:04.296Z,101273.22
2023-04-18T10:04:07.961Z,101272.19
2023-04-18T10:06:12.679Z,101285.97
2023-04-18T10:08:16.006Z,101277.38
2023-04-18T10:10:19.163Z,101276.16
2023-04-18T10:12:24.323Z,101276.69
2023-04-18T10:14:28.542Z,101283.63
2023-04-18T10:16:34.194Z,101271.19
2023-04-18T10:18:38.466Z,101279.03
2023-04-18T10:20:42.556Z,101276.38
2023-04-18T10:22:45.335Z,101272.88
2023-04-18T10:24:54.054Z,101261.59
2023-04-18T10:26:57.851Z,101257.72
2023-04-18T10:29:02.515Z,101253.72
2023-04-18T10:31:05.756Z,101259.00
2023-04-18T10:33:31.103Z,101256.41
2023-04-18T10:35:36.411Z,101253.78
2023-04-18T10:37:51.138Z,101244.00
2023-04-18T10:40:00.218Z,101244.00
2023-04-18T10:42:03.062Z,101246.97
2023-04-18T10:44:15.831Z,101238.69
2023-04-18T10:46:30.894Z,101238.38
2023-04-18T10:51:14.795Z,101240.69
2023-04-18T10:53:17.709Z,101240.56
2023-04-18T10:55:27.164Z,101237.34
2023-04-18T10:57:39.743Z,101237.28
2023-04-18T10:59:49.166Z,101231.97
2023-04-18T11:01:57.764Z,101231.09
2023-04-18T11:04:01.399Z,101228.59
2023-04-18T11:06:05.033Z,101228.00
2023-04-18T11:08:23.610Z,101219.66
2023-04-18T11:10:27.715Z,101206.53
2023-04-18T11:12:32.398Z,101200.53
2023-04-18T11:14:41.390Z,101204.28
2023-04-18T11:16:45.642Z,101197.41
2023-04-18T11:18:48.432Z,101192.34
2023-04-18T11:20:52.534Z,101192.22
2023-04-18T11:22:57.153Z,101191.31
2023-04-18T11:25:00.883Z,101191.25
2023-04-18T11:27:04.901Z,101193.78
2023-04-18T11:29:07.707Z,101199.13
2023-04-18T11:31:10.628Z,101191.34
2023-04-18T11:33:15.439Z,101192.16
2023-04-18T11:35:18.605Z,101184.34
2023-04-18T11:37:21.519Z,101186.06
2023-04-18T11:39:24.429Z,101188.75
2023-04-18T11:41:27.314Z,101189.72
2023-04-18T11:43:30.458Z,101190.59
2023-04-18T11:45:33.417Z,101187.97
2023-04-18T11:47:36.375Z,101186.47
2023-04-18T11:49:40.589Z,101195.16
2023-04-18T11:51:46.221Z,101191.06
2023-04-18T11:53:49.055Z,101182.31
2023-04-18T11:55:56.382Z,101187.25
2023-04-18T11:58:00.428Z,101188.31
2023-04-18T12:00:06.806Z,101188.22
2023-04-18T12:02:16.730Z,101193.59
2023-04-18T12:04:20.200Z,101187.47
2023-04-18T12:06:25.203Z,101187.56
2023-04-18T12:08:28.133Z,101185.91
2023-04-18T12:10:31.064Z,101194.75
2023-04-18T12:12:34.130Z,101189.81
2023-04-18T12:14:36.985Z,101202.94
2023-04-18T12:16:39.831Z,101208.88
2023-04-18T12:18:42.674Z,101203.63
2023-04-18T12:20:50.283Z,101197.53
2023-04-18T12:22:55.560Z,101202.00
2023-04-18T12:25:09.792Z,101198.50
2023-04-18T12:27:13.022Z,101208.09
2023-04-18T12:29:15.872Z,101208.91
2023-04-18T12:31:18.788Z,101208.16
2023-04-18T12:33:21.649Z,101202.84
2023-04-18T12:35:25.622Z,101217.53
2023-04-18T12:37:28.415Z,101207.06
2023-04-18T12:39:32.827Z,101217.41
2023-04-18T12:41:35.619Z,101212.25
2023-04-18T12:43:38.423Z,101215.72
2023-04-18T12:45:41.249Z,101211.50
2023-04-18T12:47:45.689Z,101204.66
2023-04-18T12:49:48.487Z,101207.34
2023-04-18T12:51:51.317Z,101208.22
2023-04-18T12:53:54.099Z,101206.41
2023-04-18T12:55:58.455Z,101205.47
2023-04-18T12:58:01.555Z,101203.69
2023-04-18T13:00:07.893Z,101189.75
2023-04-18T13:02:10.900Z,101197.53
2023-04-18T13:04:14.111Z,101196.66
2023-04-18T13:06:17.157Z,101193.28
2023-04-18T13:08:20.084Z,101195.91
2023-04-18T13:10:24.655Z,101194.13
2023-04-18T13:12:30.374Z,101198.66
2023-04-18T13:14:33.164Z,101191.56
2023-04-18T13:16:36.090Z,101189.75
2023-04-18T13:18:39.022Z,101187.22
2023-04-18T13:21:31.819Z,101193.28
2023-04-18T13:23:34.684Z,101195.88
2023-04-18T13:25:37.565Z,101181.91
2023-04-18T13:27:42.389Z,101190.66
2023-04-18T13:29:45.618Z,101186.22
2023-04-18T13:31:48.468Z,101186.16
2023-04-18T13:33:51.678Z,101188.03
2023-04-18T13:35:54.602Z,101179.19
2023-04-18T13:37:57.454Z,101197.53
2023-04-18T13:40:00.332Z,101196.72
2023-04-18T13:42:04.361Z,101192.34
2023-04-18T13:44:08.871Z,101188.72
2023-04-18T13:46:12.693Z,101193.19
2023-04-18T13:48:16.365Z,101181.84
2023-04-18T13:50:20.217Z,101189.72
2023-04-18T13:52:23.331Z,101175.69
2023-04-18T13:54:26.787Z,101178.31
2023-04-18T13:56:29.712Z,101182.69
2023-04-18T13:58:32.632Z,101181.81
2023-04-18T14:00:36.783Z,101180.09
2023-04-18T14:02:39.846Z,101182.66
2023-04-18T14:04:42.857Z,101174.81
2023-04-18T14:06:47.348Z,101172.25
2023-04-18T14:08:51.738Z,101170.53
2023-04-18T14:10:54.578Z,101174.03
2023-04-18T14:12:57.801Z,101169.63
2023-04-18T14:15:00.774Z,101168.78
2023-04-18T14:17:05.038Z,101173.13
2023-04-18T14:19:07.921Z,101169.69
2023-04-18T14:21:10.783Z,101169.63
2023-04-18T14:23:13.542Z,101168.75
2023-04-18T14:25:16.950Z,101165.28
2023-04-18T14:27:19.795Z,101162.72
2023-04-18T14:29:22.597Z,101165.28
2023-04-18T14:31:25.987Z,101162.69
2023-04-18T14:33:30.198Z,101170.66
2023-04-18T14:35:33.973Z,101165.41
2023-04-18T14:37:36.828Z,101167.16
2023-04-18T14:39:39.747Z,101168.06
2023-04-18T14:41:42.521Z,101158.56
2023-04-18T14:43:45.340Z,101164.72
2023-04-18T14:45:48.104Z,101154.25
2023-04-18T14:47:50.960Z,101156.88
2023-04-18T14:49:55.251Z,101159.44
2023-04-18T14:51:58.178Z,101155.94
2023-04-18T14:54:01.114Z,101156.81
2023-04-18T14:56:03.974Z,101160.22
2023-04-18T14:58:06.783Z,101148.06
2023-04-18T15:00:12.064Z,101150.69
2023-04-18T15:02:15.101Z,101141.97
2023-04-18T15:04:18.131Z,101143.78
2023-04-18T15:06:22.950Z,101143.78
2023-04-18T15:08:25.623Z,101149.03
2023-04-18T15:10:28.760Z,101144.66
2023-04-18T15:12:31.949Z,101145.53
2023-04-18T15:14:34.909Z,101143.78
2023-04-18T15:16:39.828Z,101148.16
2023-04-18T15:18:43.480Z,101154.25
2023-04-18T15:20:47.299Z,101139.34
2023-04-18T15:22:51.577Z,101145.47
2023-04-18T15:24:54.336Z,101150.78
2023-04-18T15:26:57.961Z,101138.56
2023-04-18T15:29:02.641Z,101149.06
2023-04-18T15:31:06.912Z,101146.44
2023-04-18T15:33:09.871Z,101139.44
2023-04-18T15:35:13.245Z,101136.81
2023-04-18T15:37:16.081Z,101137.66
2023-04-18T15:39:23.329Z,101139.47
2023-04-18T15:41:27.984Z,101135.09
2023-04-18T15:43:30.788Z,101138.59
2023-04-18T15:45:34.343Z,101132.47
2023-04-18T15:47:37.309Z,101138.59
2023-04-18T15:49:40.175Z,101142.09
2023-04-18T15:51:43.052Z,101128.06
2023-04-18T15:53:45.934Z,101131.56
2023-04-18T15:55:50.766Z,101133.31
2023-04-18T15:57:55.315Z,101139.41
2023-04-18T16:00:01.510Z,101133.31
2023-04-18T16:02:06.275Z,101132.41
2023-04-18T16:04:09.505Z,101128.03
2023-04-18T16:06:12.762Z,101127.22
2023-04-18T16:08:15.748Z,101128.03
2023-04-18T16:10:18.671Z,101134.13
2023-04-18T16:12:22.876Z,101125.41
2023-04-18T16:14:25.784Z,101128.03
2023-04-18T16:16:28.957Z,101126.31
2023-04-18T16:18:31.820Z,101128.06
2023-04-18T16:20:34.703Z,101123.69
2023-04-18T16:22:37.690Z,101124.59
2023-04-18T16:24:42.085Z,101130.69
2023-04-18T16:26:44.976Z,101135.94
2023-04-18T16:28:49.210Z,101137.66
2023-04-18T16:30:53.569Z,101130.69
2023-04-18T16:32:58.449Z,101129.84
2023-04-18T16:35:01.423Z,101127.16
2023-04-18T16:37:04.232Z,101133.28
2023-04-18T16:39:07.047Z,101128.94
2023-04-18T16:41:09.937Z,101137.72
2023-04-18T16:43:12.748Z,101128.06
2023-04-18T16:45:17.234Z,101135.94
2023-04-18T16:47:20.328Z,101135.09
2023-04-18T16:49:25.172Z,101132.41
2023-04-18T16:51:28.802Z,101135.94
2023-04-18T16:53:31.611Z,101135.09
2023-04-18T16:55:34.390Z,101138.56
2023-04-18T16:57:37.212Z,101145.53
2023-04-18T16:59:41.685Z,101150.78
2023-04-18T17:01:46.308Z,101148.16
2023-04-18T17:03:49.164Z,101146.44
2023-04-18T17:05:52.013Z,101153.34
2023-04-18T17:07:56.005Z,101154.25
2023-04-18T17:09:58.792Z,101153.31
2023-04-18T17:12:01.646Z,101161.19
2023-04-18T17:14:04.731Z,101160.28
2023-04-18T17:16:08.153Z,101158.56
2023-04-18T17:18:12.390Z,101150.69
2023-04-18T17:20:17.719Z,101159.38
2023-04-18T17:22:20.601Z,101156.88
2023-04-18T17:24:23.430Z,101160.47
2023-04-18T17:26:27.659Z,101167.44
2023-04-18T17:28:30.457Z,101166.50
2023-04-18T17:30:33.609Z,101166.50
2023-04-18T17:32:41.868Z,101170.75
2023-04-18T17:34:46.230Z,101179.41
2023-04-18T17:36:49.091Z,101175.00
2023-04-18T17:38:52.046Z,101174.94
2023-04-18T17:41:00.461Z,101180.09
2023-04-18T17:43:03.325Z,101183.59
2023-04-18T17:45:07.612Z,101176.72
2023-04-18T17:47:10.705Z,101185.41
2023-04-18T17:49:13.692Z,101188.72
2023-04-18T17:51:19.206Z,101194.03
2023-04-18T17:53:22.228Z,101194.91
2023-04-18T17:55:26.113Z,101199.97
2023-04-18T17:57:30.491Z,101192.91
2023-04-18T17:59:37.516Z,101201.75
2023-04-18T18:01:41.317Z,101200.78
2023-04-18T18:03:44.596Z,101201.56
2023-04-18T18:05:48.492Z,101205.06
2023-04-18T18:07:54.203Z,101211.94
2023-04-18T18:09:57.563Z,101208.63
2023-04-18T18:12:00.579Z,101217.28
2023-04-18T18:14:03.698Z,101217.16
2023-04-18T18:16:07.523Z,101224.13
2023-04-18T18:18:10.662Z,101225.66
2023-04-18T18:20:14.472Z,101230.06
2023-04-18T18:22:17.507Z,101224.78
2023-04-18T18:24:22.042Z,101229.91
2023-04-18T18:26:26.436Z,101228.22
2023-04-18T18:28:29.342Z,101240.44
2023-04-18T18:30:32.375Z,101231.59
2023-04-18T18:32:35.467Z,101238.31
2023-04-18T18:34:38.280Z,101242.69
2023-04-18T18:36:41.114Z,101242.88
2023-04-18T18:38:44.164Z,101255.75
2023-04-18T18:40:48.276Z,101255.91
2023-04-18T18:42:53.694Z,101254.25
2023-04-18T18:44:56.489Z,101257.66
2023-04-18T18:47:00.017Z,101253.13
2023-04-18T18:49:02.888Z,101264.56
2023-04-18T18:51:05.663Z,101266.16
2023-04-18T18:53:08.560Z,101275.69
2023-04-18T18:55:11.605Z,101276.59
2023-04-18T18:57:15.847Z,101271.31
2023-04-18T18:59:19.115Z,101277.38
2023-04-18T19:01:22.129Z,101285.00
2023-04-18T19:03:25.680Z,101284.97
2023-04-18T19:05:28.684Z,101288.69
2023-04-18T19:07:31.572Z,101288.63
2023-04-18T19:09:35.141Z,101291.22
2023-04-18T19:11:37.989Z,101292.91
2023-04-18T19:13:42.210Z,101301.66
2023-04-18T19:15:45.100Z,101298.94
2023-04-18T19:17:48.034Z,101298.94
2023-04-18T19:19:51.106Z,101303.19
2023-04-18T19:21:54.013Z,101303.13
2023-04-18T19:23:56.883Z,101295.38
2023-04-18T19:25:59.670Z,101301.41
2023-04-18T19:28:02.477Z,101307.47
2023-04-18T19:30:08.185Z,101310.84
2023-04-18T19:32:11.056Z,101304.84
2023-04-18T19:34:13.927Z,101318.78
2023-04-18T19:36:17.269Z,101311.88
2023-04-18T19:38:20.247Z,101315.38
2023-04-18T19:40:26.584Z,101312.75
2023-04-18T19:42:29.481Z,101312.59
2023-04-18T19:44:32.558Z,101312.53
2023-04-18T19:46:36.798Z,101304.31
2023-04-18T19:48:39.715Z,101302.59
2023-04-18T19:50:43.118Z,101311.34
2023-04-18T19:52:45.949Z,101311.41
2023-04-18T19:54:48.812Z,101315.16
2023-04-18T19:56:51.819Z,101321.25
2023-04-18T19:58:55.176Z,101315.66
2023-04-18T20:00:58.098Z,101310.47
2023-04-18T20:03:02.494Z,101314.84
2023-04-18T20:05:06.882Z,101322.69
2023-04-18T20:07:09.822Z,101323.38
2023-04-18T20:09:16.705Z,101323.63
2023-04-18T20:11:20.128Z,101334.72
2023-04-18T20:13:23.124Z,101320.41
2023-04-18T20:15:25.898Z,101329.88
2023-04-18T20:17:30.445Z,101328.38
2023-04-18T20:19:34.726Z,101326.06
2023-04-18T20:21:37.511Z,101324.38
2023-04-18T20:23:42.025Z,101328.59
2023-04-18T20:25:44.841Z,101328.34
2023-04-18T20:27:48.087Z,101332.06
2023-04-18T20:29:50.943Z,101333.72
2023-04-18T20:31:53.759Z,101332.78
2023-04-18T20:33:56.554Z,101327.63
2023-04-18T20:36:01.005Z,101327.47
2023-04-18T20:38:03.840Z,101330.81
2023-04-18T20:40:10.936Z,101326.41
2023-04-18T20:42:14.683Z,101327.56
2023-04-18T20:44:19.034Z,101327.81
2023-04-18T20:46:22.039Z,101328.47
2023-04-18T20:48:24.879Z,101317.84
2023-04-18T20:50:27.861Z,101327.53
2023-04-18T20:52:32.070Z,101321.13
2023-04-18T20:54:34.939Z,101321.16
2023-04-18T20:56:37.974Z,101326.25
2023-04-18T20:58:41.796Z,101323.97
2023-04-18T21:00:44.925Z,101327.34
2023-04-18T21:02:47.889Z,101330.59
2023-04-18T21:04:50.940Z,101328.19
2023-04-18T21:06:53.845Z,101327.25
2023-04-18T21:08:58.060Z,101329.00
2023-04-18T21:11:00.858Z,101332.09
2023-04-18T21:13:03.693Z,101332.00
2023-04-18T21:15:07.584Z,101338.00
2023-04-18T21:17:10.795Z,101336.31
2023-04-18T21:19:13.563Z,101337.41
2023-04-18T21:21:16.401Z,101325.22
2023-04-18T21:23:19.239Z,101330.50
2023-04-18T21:25:23.385Z,101323.69
2023-04-18T21:27:26.262Z,101340.13
2023-04-18T21:29:29.136Z,101338.31
2023-04-18T21:31:34.005Z,101330.66
2023-04-18T21:33:36.851Z,101339.16
2023-04-18T21:35:39.728Z,101342.53
2023-04-18T21:37:42.852Z,101337.50
2023-04-18T21:39:45.710Z,101353.06
2023-04-18T21:41:49.912Z,101340.91
2023-04-18T21:43:53.000Z,101341.75
2023-04-18T21:45:55.853Z,101344.03
2023-04-18T21:47:58.671Z,101341.47
2023-04-18T21:50:01.660Z,101337.94
2023-04-18T21:52:04.579Z,101346.84
2023-04-18T21:54:08.378Z,101341.63
2023-04-18T21:56:11.721Z,101338.09
2023-04-18T21:58:15.928Z,101341.66
2023-04-18T22:00:20.359Z,101349.78
2023-04-18T22:02:23.390Z,101347.59
2023-04-18T22:04:26.904Z,101345.78
2023-04-18T22:06:30.793Z,101350.25
2023-04-18T22:08:33.838Z,101349.34
2023-04-18T22:10:37.141Z,101339.03
2023-04-18T22:12:40.061Z,101342.53
2023-04-18T22:14:48.093Z,101337.00
2023-04-18T22:16:51.026Z,101332.94
2023-04-18T22:18:54.030Z,101332.09
2023-04-18T22:20:57.369Z,101340.00
2023-04-18T22:23:00.401Z,101337.00
2023-04-18T22:25:03.559Z,101337.72
2023-04-18T22:27:06.424Z,101337.06
2023-04-18T22:29:09.248Z,101342.09
2023-04-18T22:31:14.598Z,101334.00
2023-04-18T22:33:17.505Z,101338.25
2023-04-18T22:35:20.774Z,101336.41
2023-04-18T22:37:23.553Z,101337.47
2023-04-18T22:39:26.782Z,101331.31
2023-04-18T22:41:29.658Z,101336.31
2023-04-18T22:43:33.425Z,101338.25
2023-04-18T22:45:36.384Z,101337.25
2023-04-18T22:47:40.693Z,101336.56
2023-04-18T22:49:44.379Z,101333.63
2023-04-18T22:51:49.707Z,101329.41
2023-04-18T22:53:52.589Z,101331.91
2023-04-18T22:55:55.422Z,101333.50
2023-04-18T22:57:58.163Z,101338.00
2023-04-18T23:00:00.901Z,101331.78
2023-04-18T23:02:03.809Z,101342.41
2023-04-18T23:04:08.450Z,101346.28
2023-04-18T23:06:11.341Z,101337.47
2023-04-18T23:08:14.194Z,101343.03
2023-04-18T23:10:16.979Z,101349.19
2023-04-18T23:12:19.786Z,101346.09
2023-04-18T23:14:22.676Z,101344.50
2023-04-18T23:16:25.549Z,101344.38
2023-04-18T23:18:29.784Z,101344.31
2023-04-18T23:20:33.916Z,101346.91
2023-04-18T23:22:38.324Z,101340.75
2023-04-18T23:24:41.046Z,101339.09
2023-04-18T23:26:43.871Z,101344.22
2023-04-18T23:28:46.679Z,101339.78
2023-04-18T23:30:50.144Z,101342.31
2023-04-18T23:32:53.010Z,101344.25
2023-04-18T23:34:55.829Z,101343.31
2023-04-18T23:37:00.013Z,101346.22
2023-04-18T23:39:02.933Z,101345.16